Time;durP1;ratioP1;P1;durP2;ratioP2;P2;SDS_P1;SDS_P2;PMS_P1;PMS_P2;Temp;Humidity;BMP_temperature;BMP_pressure;BME280_temperature;BME280_humidity;BME280_pressure;Samples;Min_cycle;Max_cycle;Signal;HPM_P1;HPM_P2
2023/05/17 00:04:38;;;;;;;12.70;11.30;;;;;;;12.38;83.11;98300.03;436454;1247;107225;-41
2023/05/17 00:14:41;;;;;;;14.70;11.80;;;;;;;12.38;83.54;98306.19;436408;1258;97941;-42
2023/05/17 00:24:46;;;;;;;13.30;11.90;;;;;;;12.35;84.15;98320.27;436388;1248;110756;-42
2023/05/17 00:34:53;;;;;;;15.80;13.20;;;;;;;12.25;84.51;98324.75;436687;1254;108086;-44
2023/05/17 00:44:57;;;;;;;17.60;13.20;;;;;;;12.17;85.03;98320.73;436461;1253;97929;-41
2023/05/17 00:55:01;;;;;;;15.00;13.20;;;;;;;12.10;85.44;98328.98;436374;1248;109284;-42
2023/05/17 01:05:06;;;;;;;14.10;11.80;;;;;;;12.00;85.93;98337.96;436532;1261;97896;-43
2023/05/17 01:15:14;;;;;;;15.50;12.70;;;;;;;11.96;86.00;98342.73;436382;1253;111211;-43
2023/05/17 01:25:26;;;;;;;12.70;11.30;;;;;;;11.93;86.42;98341.23;437085;1253;107603;-42
2023/05/17 01:35:31;;;;;;;14.20;12.50;;;;;;;11.85;87.21;98330.52;436262;1260;99221;-41
2023/05/17 01:45:38;;;;;;;10.10;9.00;;;;;;;11.81;87.13;98321.44;436109;1254;108466;-51
2023/05/17 01:55:47;;;;;;;10.80;9.70;;;;;;;11.74;87.46;98314.38;436156;1261;99224;-42
2023/05/17 02:05:51;;;;;;;13.10;10.50;;;;;;;11.64;88.19;98315.64;436463;1247;110969;-43
2023/05/17 02:15:59;;;;;;;9.10;8.20;;;;;;;11.51;88.82;98320.52;436182;1248;108340;-42
2023/05/17 02:26:03;;;;;;;11.30;9.10;;;;;;;11.41;89.47;98331.60;436411;1254;99396;-42
2023/05/17 02:36:06;;;;;;;9.50;8.30;;;;;;;11.37;89.66;98334.09;436186;1248;108169;-42
2023/05/17 02:46:10;;;;;;;14.10;8.90;;;;;;;11.32;89.42;98353.70;436313;1255;98852;-42
2023/05/17 02:56:13;;;;;;;13.30;10.20;;;;;;;11.26;89.63;98368.48;436308;1254;110705;-42
2023/05/17 03:06:17;;;;;;;11.90;9.50;;;;;;;11.16;89.89;98357.69;436322;1260;108397;-43
2023/05/17 03:16:20;;;;;;;15.40;11.00;;;;;;;11.04;90.57;98364.78;436255;1254;99233;-41
2023/05/17 03:26:24;;;;;;;14.90;11.50;;;;;;;10.90;90.44;98366.14;436295;1248;107833;-41
2023/05/17 03:36:28;;;;;;;16.90;13.50;;;;;;;10.80;90.59;98387.10;436341;1253;99224;-40
2023/05/17 03:46:31;;;;;;;15.80;12.10;;;;;;;10.73;90.94;98397.60;436003;1248;496389;-46
2023/05/17 03:56:35;;;;;;;14.30;11.80;;;;;;;10.69;91.34;98406.44;436362;1248;107557;-42
2023/05/17 04:06:40;;;;;;;19.20;13.10;;;;;;;10.68;91.22;98406.36;436344;1251;99208;-42
2023/05/17 04:16:44;;;;;;;16.30;12.30;;;;;;;10.62;91.45;98387.98;436326;1252;108374;-40
2023/05/17 04:26:49;;;;;;;19.20;13.90;;;;;;;10.58;91.74;98403.77;436289;1254;99276;-41
2023/05/17 04:36:52;;;;;;;19.80;15.00;;;;;;;10.57;91.76;98423.36;436271;1253;111130;-41
2023/05/17 04:46:56;;;;;;;19.70;15.40;;;;;;;10.56;91.91;98437.68;436131;1248;107852;-41
2023/05/17 04:56:59;;;;;;;26.30;14.90;;;;;;;10.54;92.36;98452.91;436426;1261;99346;-41
2023/05/17 05:07:07;;;;;;;22.40;14.90;;;;;;;10.50;92.40;98468.38;436298;1254;107983;-40
2023/05/17 05:17:12;;;;;;;31.50;17.40;;;;;;;10.48;92.80;98476.29;436306;1247;99253;-42
2023/05/17 05:27:15;;;;;;;24.10;16.80;;;;;;;10.45;92.90;98474.48;436060;1247;111113;-42
2023/05/17 05:37:19;;;;;;;19.70;15.10;;;;;;;10.44;93.05;98476.68;436351;1248;108295;-42
2023/05/17 05:47:24;;;;;;;15.80;10.90;;;;;;;10.36;92.84;98470.64;436265;1253;99610;-42
2023/05/17 05:57:30;;;;;;;18.50;10.10;;;;;;;10.13;93.07;98471.77;436246;1254;108192;-41
2023/05/17 06:07:33;;;;;;;17.20;9.30;;;;;;;9.94;92.93;98496.88;436226;1248;99199;-40
2023/05/17 06:17:38;;;;;;;14.40;7.20;;;;;;;9.84;92.70;98532.39;436302;1247;112280;-40
2023/05/17 06:27:43;;;;;;;10.20;6.70;;;;;;;9.77;92.35;98549.85;436257;1248;108331;-41
2023/05/17 06:37:46;;;;;;;23.10;11.50;;;;;;;9.75;92.29;98547.37;436219;1251;98540;-41
2023/05/17 06:47:50;;;;;;;15.60;10.60;;;;;;;9.79;92.37;98552.61;436216;1248;109966;-41
2023/05/17 06:57:54;;;;;;;16.50;8.70;;;;;;;9.87;91.98;98570.28;436241;1248;99224;-42
2023/05/17 07:07:58;;;;;;;18.30;11.40;;;;;;;9.94;92.01;98585.19;436400;1248;111849;-41
2023/05/17 07:18:02;;;;;;;14.30;10.30;;;;;;;10.02;91.91;98593.95;436379;1251;107809;-41
2023/05/17 07:38:10;;;;;;;18.90;12.20;;;;;;;10.16;91.38;98604.10;436243;1248;107637;-41
2023/05/17 07:48:14;;;;;;;17.80;12.10;;;;;;;10.19;91.36;98611.65;436204;1253;99350;-41
2023/05/17 07:58:22;;;;;;;19.70;11.40;;;;;;;10.23;91.41;98604.20;436306;1248;111792;-41
2023/05/17 08:08:25;;;;;;;15.30;10.60;;;;;;;10.19;91.56;98600.29;436174;1254;106548;-42
2023/05/17 08:18:29;;;;;;;20.70;11.70;;;;;;;10.09;91.71;98613.77;436288;1253;99635;-41
2023/05/17 08:28:33;;;;;;;16.30;9.60;;;;;;;10.04;91.61;98627.39;436298;1254;108465;-41
2023/05/17 08:38:37;;;;;;;17.40;9.40;;;;;;;10.09;91.53;98632.25;436106;1248;99259;-41
2023/05/17 09:09:01;;;;;;;20.30;9.00;;;;;;;10.19;91.20;98668.15;436264;1253;99261;-40
2023/05/17 09:19:07;;;;;;;13.30;8.00;;;;;;;10.25;90.98;98673.29;436268;1247;108433;-41
2023/05/17 09:29:11;;;;;;;12.00;7.10;;;;;;;10.30;90.41;98664.17;436189;1254;99110;-40
2023/05/17 09:39:16;;;;;;;9.70;5.90;;;;;;;10.38;89.93;98670.50;436330;1248;111438;-41
2023/05/17 09:49:20;;;;;;;11.60;5.10;;;;;;;10.40;89.38;98686.09;436396;1248;108647;-41
2023/05/17 09:59:29;;;;;;;10.10;6.40;;;;;;;10.35;89.01;98698.53;436388;1247;99218;-40
2023/05/17 10:09:36;;;;;;;21.70;10.10;;;;;;;10.32;88.61;98714.36;436374;1253;107711;-41
2023/05/17 10:19:41;;;;;;;13.80;7.60;;;;;;;10.39;88.46;98725.21;436260;1253;98345;-41
2023/05/17 10:29:46;;;;;;;13.10;7.60;;;;;;;10.37;88.17;98729.41;436782;1248;111834;-41
2023/05/17 10:39:55;;;;;;;16.30;8.00;;;;;;;10.40;88.08;98716.47;436135;1248;108719;-41
2023/05/17 11:00:18;;;;;;;14.50;8.90;;;;;;;10.39;87.82;98728.76;436549;1250;107643;-42
2023/05/17 11:10:23;;;;;;;15.30;7.40;;;;;;;10.40;87.82;98743.71;436397;1251;99191;-51
2023/05/17 11:20:33;;;;;;;15.90;7.10;;;;;;;10.29;87.93;98747.49;436311;1248;112347;-42
2023/05/17 11:50:53;;;;;;;14.80;6.10;;;;;;;10.44;88.62;98783.67;436323;1249;108020;-42
2023/05/17 12:00:58;;;;;;;9.70;6.80;;;;;;;10.49;88.54;98794.64;436231;1251;99243;-42
2023/05/17 12:11:02;;;;;;;13.50;6.30;;;;;;;10.38;88.48;98805.60;436244;1251;111276;-41
2023/05/17 12:21:07;;;;;;;7.40;4.70;;;;;;;10.17;88.60;98809.83;436435;1247;108461;-43
2023/05/17 12:31:14;;;;;;;11.40;4.50;;;;;;;10.12;88.56;98812.11;436349;1253;99317;-42
2023/05/17 12:41:18;;;;;;;12.20;6.10;;;;;;;10.18;88.55;98817.80;436212;1248;107826;-41
2023/05/17 12:51:23;;;;;;;19.90;9.40;;;;;;;10.33;88.52;98826.45;436199;1253;99218;-42
2023/05/17 13:01:32;;;;;;;11.70;7.20;;;;;;;10.51;88.47;98835.89;436392;1250;112157;-41
2023/05/17 13:21:40;;;;;;;23.20;11.80;;;;;;;10.41;88.33;98842.13;436319;1248;98012;-42
2023/05/17 13:31:44;;;;;;;23.10;10.50;;;;;;;10.46;88.28;98852.84;436300;1247;108757;-42
2023/05/17 13:41:50;;;;;;;23.50;9.60;;;;;;;10.44;88.33;98866.59;436150;1248;99132;-43
2023/05/17 13:51:55;;;;;;;30.80;16.00;;;;;;;10.36;88.12;98875.56;436404;1247;112105;-42
2023/05/17 14:01:59;;;;;;;14.10;8.70;;;;;;;10.31;88.31;98882.17;436400;1247;108130;-41
2023/05/17 14:12:04;;;;;;;18.00;9.50;;;;;;;10.28;88.26;98887.63;436361;1253;98025;-41
2023/05/17 14:32:15;;;;;;;16.70;7.30;;;;;;;10.37;88.43;98904.75;436381;1247;99253;-41
2023/05/17 14:42:18;;;;;;;14.30;8.60;;;;;;;10.48;88.39;98911.15;436434;1247;111497;-42
2023/05/17 14:52:22;;;;;;;18.60;9.80;;;;;;;10.46;88.51;98914.55;436289;1253;109332;-42
2023/05/17 15:02:30;;;;;;;31.30;13.90;;;;;;;10.42;88.52;98925.64;436380;1251;99221;-42
2023/05/17 15:12:35;;;;;;;34.20;17.20;;;;;;;10.37;88.67;98927.59;436457;1261;108346;-42
2023/05/17 15:22:39;;;;;;;29.10;15.30;;;;;;;10.23;88.88;98933.08;436276;1253;99632;-41
2023/05/17 15:32:43;;;;;;;29.80;14.00;;;;;;;10.06;89.24;98935.84;436337;1251;111753;-41
2023/05/17 15:42:47;;;;;;;27.00;13.20;;;;;;;9.99;89.18;98939.09;435872;1253;520883;-41
2023/05/17 15:52:54;;;;;;;32.50;14.90;;;;;;;9.96;89.33;98947.25;436423;1253;99243;-42
2023/05/17 16:13:03;;;;;;;31.20;15.60;;;;;;;9.97;89.60;98956.14;436404;1248;99341;-40
2023/05/17 16:23:07;;;;;;;30.90;14.00;;;;;;;10.00;89.78;98971.84;436432;1252;111703;-41
2023/05/17 16:33:14;;;;;;;28.60;15.30;;;;;;;10.09;89.62;98983.49;436558;1247;108496;-41
2023/05/17 16:43:23;;;;;;;25.20;13.40;;;;;;;10.11;89.66;98993.39;436609;1251;99851;-42
2023/05/17 16:53:27;;;;;;;22.90;12.10;;;;;;;10.09;89.57;99005.81;436272;1253;108713;-42
2023/05/17 17:03:31;;;;;;;32.30;15.10;;;;;;;10.07;89.66;99013.39;436238;1251;98782;-41
2023/05/17 17:13:35;;;;;;;21.00;12.20;;;;;;;10.01;89.69;99011.17;436250;1253;111924;-41
2023/05/17 17:23:39;;;;;;;20.70;10.00;;;;;;;9.97;89.66;99014.09;436267;1253;107175;-40
2023/05/17 17:33:43;;;;;;;20.40;10.70;;;;;;;9.96;89.65;99016.34;436180;1254;99678;-42
2023/05/17 17:43:48;;;;;;;24.90;9.90;;;;;;;9.96;89.59;99033.29;436274;1254;108572;-40
2023/05/17 18:03:57;;;;;;;23.20;10.50;;;;;;;9.81;89.51;99044.27;436423;1248;111577;-41
2023/05/17 18:24:03;;;;;;;19.90;10.00;;;;;;;9.68;89.36;99058.77;436351;1253;99623;-42
2023/05/17 18:34:07;;;;;;;20.20;9.30;;;;;;;9.64;89.32;99077.22;436372;1251;107876;-41
2023/05/17 18:44:15;;;;;;;18.60;10.50;;;;;;;9.56;89.15;99077.80;436287;1253;99237;-41
2023/05/17 18:54:21;;;;;;;25.50;11.10;;;;;;;9.49;89.24;99084.17;436344;1251;111768;-42
2023/05/17 19:04:25;;;;;;;21.80;11.10;;;;;;;9.45;89.20;99098.55;436195;1251;106449;-41
2023/05/17 19:14:30;;;;;;;21.10;11.80;;;;;;;9.47;89.32;99092.42;436314;1253;98836;-41
2023/05/17 19:24:34;;;;;;;21.30;10.40;;;;;;;9.50;89.13;99093.72;436260;1261;108157;-39
2023/05/17 19:34:39;;;;;;;20.30;11.60;;;;;;;9.48;88.88;99100.52;436444;1250;99212;-41
2023/05/17 19:44:43;;;;;;;13.30;9.00;;;;;;;9.43;88.89;99104.33;436347;1252;111752;-42
2023/05/17 19:54:46;;;;;;;23.70;11.10;;;;;;;9.43;88.90;99119.27;436181;1253;107396;-41
2023/05/17 20:04:53;;;;;;;23.60;12.90;;;;;;;9.35;88.68;99127.77;436340;1253;99256;-41
2023/05/17 20:15:04;;;;;;;25.40;12.60;;;;;;;9.23;88.87;99128.58;436125;1253;109423;-42
2023/05/17 20:25:08;;;;;;;17.70;10.80;;;;;;;9.14;88.68;99135.91;436250;1253;98293;-42
2023/05/17 20:35:12;;;;;;;19.60;10.40;;;;;;;9.16;88.53;99137.69;436423;1253;110952;-42
2023/05/17 20:45:16;;;;;;;23.30;11.10;;;;;;;9.17;88.49;99148.64;436182;1248;107373;-41
2023/05/17 20:55:20;;;;;;;23.70;10.70;;;;;;;9.17;88.41;99159.80;436232;1253;99642;-40
2023/05/17 21:05:24;;;;;;;28.10;12.80;;;;;;;9.14;88.49;99160.59;436359;1261;107617;-42
2023/05/17 21:15:28;;;;;;;16.00;10.50;;;;;;;9.12;88.38;99170.02;436192;1253;99211;-42
2023/05/17 21:25:32;;;;;;;22.60;10.60;;;;;;;9.03;88.23;99170.85;436326;1248;110967;-41
2023/05/17 21:35:36;;;;;;;17.80;10.40;;;;;;;8.95;88.40;99182.08;436175;1251;108558;-42
2023/05/17 21:45:40;;;;;;;28.60;12.00;;;;;;;8.96;88.30;99188.83;436445;1252;99493;-42
2023/05/17 21:55:44;;;;;;;35.90;13.30;;;;;;;8.95;88.39;99191.91;436374;1252;108696;-40
2023/05/17 22:06:05;;;;;;;31.40;16.60;;;;;;;8.89;88.23;99191.73;436382;1253;98817;-42
2023/05/17 22:16:09;;;;;;;27.90;13.30;;;;;;;8.79;88.05;99188.45;436296;1254;110550;-41
2023/05/17 22:26:17;;;;;;;27.40;12.60;;;;;;;8.77;87.95;99197.34;436349;1253;108297;-42
2023/05/17 22:36:23;;;;;;;29.70;12.10;;;;;;;8.79;87.88;99207.98;436155;1253;99154;-41
2023/05/17 22:46:27;;;;;;;26.20;12.90;;;;;;;8.78;87.95;99207.33;436197;1253;108602;-40
2023/05/17 22:56:33;;;;;;;31.80;10.80;;;;;;;8.80;87.73;99213.69;436321;1261;97934;-40
2023/05/17 23:06:41;;;;;;;24.10;10.80;;;;;;;8.75;87.71;99215.55;436353;1248;111704;-42
2023/05/17 23:16:44;;;;;;;23.20;10.10;;;;;;;8.60;87.51;99223.02;436308;1249;107969;-41
2023/05/17 23:26:48;;;;;;;25.30;9.90;;;;;;;8.52;87.39;99225.08;436291;1253;99230;-42
2023/05/17 23:36:53;;;;;;;17.10;6.90;;;;;;;8.51;87.21;99221.91;436333;1248;108530;-41
2023/05/17 23:46:57;;;;;;;19.80;6.90;;;;;;;8.48;87.23;99221.69;436238;1254;99240;-41
2023/05/17 23:57:01;;;;;;;11.70;5.10;;;;;;;8.46;87.20;99227.98;436380;1248;110647;-40
